Time;durP1;ratioP1;P1;durP2;ratioP2;P2;SDS_P1;SDS_P2;PMS_P1;PMS_P2;Temp;Humidity;BMP_temperature;BMP_pressure;BME280_temperature;BME280_humidity;BME280_pressure;Samples;Min_cycle;Max_cycle;Signal;HPM_P1;HPM_P2
2023/03/26 00:00:13;;;;;;;16.75;2.95;;;;;;;10.24;65.85;100297.63;5014968;28;20022;-67
2023/03/26 00:02:39;;;;;;;22.88;3.42;;;;;;;10.26;65.38;100294.16;5014224;28;20659;-67
2023/03/26 00:05:06;;;;;;;12.68;2.65;;;;;;;10.27;65.73;100286.38;5010786;28;20483;-67
2023/03/26 00:07:32;;;;;;;12.60;2.88;;;;;;;10.26;66.91;100304.50;5006965;28;20033;-67
2023/03/26 00:09:57;;;;;;;20.50;3.05;;;;;;;10.22;66.30;100309.72;5010897;28;20084;-67
2023/03/26 00:12:24;;;;;;;19.80;3.53;;;;;;;10.16;67.48;100322.72;5012605;28;20442;-67
2023/03/26 00:14:51;;;;;;;15.38;2.45;;;;;;;10.11;67.03;100323.66;5011188;28;20050;-68
2023/03/26 00:17:17;;;;;;;16.83;3.17;;;;;;;10.08;67.14;100324.56;5023477;28;20041;-68
2023/03/26 00:19:43;;;;;;;15.27;3.25;;;;;;;10.05;67.78;100334.06;5018549;28;20530;-68
2023/03/26 00:22:12;;;;;;;17.13;2.97;;;;;;;10.00;68.04;100339.28;5016529;28;20120;-68
2023/03/26 00:24:38;;;;;;;16.77;3.83;;;;;;;9.90;68.15;100344.59;5013703;28;20053;-67
2023/03/26 00:27:05;;;;;;;12.63;3.00;;;;;;;9.80;69.06;100349.00;5019231;28;20076;-68
2023/03/26 00:29:32;;;;;;;14.05;2.67;;;;;;;9.67;68.95;100350.84;5018024;28;20401;-67
2023/03/26 00:31:57;;;;;;;16.35;3.28;;;;;;;9.55;69.73;100356.16;5015529;28;20038;-67
2023/03/26 00:34:23;;;;;;;11.30;2.90;;;;;;;9.42;70.01;100351.97;5020636;28;20046;-67
2023/03/26 00:36:53;;;;;;;17.25;2.90;;;;;;;9.29;70.36;100365.03;5017139;28;20037;-68
2023/03/26 00:39:20;;;;;;;13.25;3.08;;;;;;;9.21;71.24;100366.78;5008500;28;20037;-68
2023/03/26 00:41:46;;;;;;;15.88;3.08;;;;;;;9.09;71.46;100360.88;5010399;28;20041;-67
2023/03/26 00:44:11;;;;;;;11.32;2.42;;;;;;;9.05;71.85;100351.47;5016393;28;20044;-67
2023/03/26 00:46:36;;;;;;;10.48;2.58;;;;;;;9.00;71.85;100347.22;5012248;28;20042;-67
2023/03/26 00:49:02;;;;;;;17.52;2.88;;;;;;;8.91;72.77;100345.56;5007409;28;20049;-67
2023/03/26 00:51:28;;;;;;;16.63;2.72;;;;;;;8.86;72.92;100347.34;5018015;28;20178;-67
2023/03/26 00:53:55;;;;;;;17.17;2.83;;;;;;;8.78;73.64;100348.28;5018051;28;20401;-67
2023/03/26 00:56:20;;;;;;;9.48;2.63;;;;;;;8.72;73.67;100344.03;5013360;28;20112;-67
2023/03/26 00:58:48;;;;;;;11.57;2.70;;;;;;;8.66;74.03;100345.78;5019700;28;20160;-67
2023/03/26 01:01:17;;;;;;;8.68;2.65;;;;;;;8.55;74.66;100338.13;5013782;28;20148;-67
2023/03/26 01:03:45;;;;;;;14.60;2.92;;;;;;;8.49;74.88;100330.44;5013953;28;20025;-68
2023/03/26 01:06:12;;;;;;;20.05;4.95;;;;;;;8.44;75.67;100327.91;5018747;28;20033;-68
2023/03/26 01:08:43;;;;;;;15.88;3.08;;;;;;;8.40;76.08;100331.34;5017848;28;20413;-67
2023/03/26 01:11:25;;;;;;;15.98;3.47;;;;;;;8.38;75.93;100317.66;5015677;28;20568;-67
2023/03/26 01:14:07;;;;;;;14.50;2.38;;;;;;;8.34;76.18;100308.22;5021105;28;20048;-68
2023/03/26 01:16:40;;;;;;;12.52;2.63;;;;;;;8.29;76.49;100299.69;5037146;28;20030;-67
2023/03/26 01:19:11;;;;;;;15.48;2.97;;;;;;;8.26;76.73;100301.41;5039352;28;20021;-67
2023/03/26 01:21:38;;;;;;;13.68;3.15;;;;;;;8.19;76.80;100303.16;5057896;28;20041;-67
2023/03/26 01:24:05;;;;;;;13.55;3.00;;;;;;;8.14;77.46;100299.78;5032370;28;20068;-67
2023/03/26 01:27:03;;;;;;;17.05;3.25;;;;;;;8.06;78.26;100300.69;5027945;28;20514;-67
2023/03/26 01:29:31;;;;;;;13.50;3.00;;;;;;;7.95;78.40;100303.34;5028932;28;20149;-67
2023/03/26 01:32:08;;;;;;;13.18;2.80;;;;;;;7.86;78.71;100293.09;5019700;28;20048;-67
2023/03/26 01:34:41;;;;;;;13.10;3.22;;;;;;;7.77;79.32;100291.38;5020607;28;20030;-68
2023/03/26 01:37:12;;;;;;;10.90;2.58;;;;;;;7.71;79.41;100288.88;5015318;28;20033;-68
2023/03/26 01:39:52;;;;;;;9.68;2.67;;;;;;;7.69;79.77;100289.72;5024668;28;20026;-68
2023/03/26 01:42:26;;;;;;;9.07;3.05;;;;;;;7.68;79.98;100278.59;5019001;28;20042;-68
2023/03/26 01:44:58;;;;;;;16.73;2.60;;;;;;;7.71;80.22;100281.16;5012442;28;20044;-68
2023/03/26 01:47:25;;;;;;;17.63;3.03;;;;;;;7.72;80.27;100277.69;5017887;28;20372;-69
2023/03/26 01:49:50;;;;;;;10.50;2.63;;;;;;;7.71;80.43;100278.59;5026669;28;20072;-68
2023/03/26 01:52:21;;;;;;;17.98;3.35;;;;;;;7.73;80.60;100271.69;5021407;28;20133;-67
2023/03/26 01:54:47;;;;;;;13.60;2.85;;;;;;;7.77;80.76;100262.25;5025584;28;20116;-68
2023/03/26 01:57:37;;;;;;;17.52;3.38;;;;;;;7.82;80.36;100258.78;5018117;28;20034;-67
2023/03/26 02:00:12;;;;;;;25.73;4.15;;;;;;;7.94;80.51;100245.84;5019891;28;20037;-68
2023/03/26 02:02:54;;;;;;;18.65;2.47;;;;;;;7.95;80.20;100247.53;5021716;28;20033;-68
2023/03/26 02:05:27;;;;;;;13.77;2.83;;;;;;;7.92;79.94;100242.41;5014368;28;20736;-68
2023/03/26 02:08:15;;;;;;;8.98;2.63;;;;;;;7.92;80.60;100246.75;5022886;28;20069;-68
2023/03/26 02:10:44;;;;;;;13.70;2.78;;;;;;;7.95;81.06;100244.97;5017269;28;20118;-68
2023/03/26 02:13:11;;;;;;;13.52;3.28;;;;;;;7.96;80.77;100249.25;5028472;28;20083;-67
2023/03/26 02:15:38;;;;;;;17.65;4.63;;;;;;;7.98;81.04;100242.38;5021148;28;20744;-67
2023/03/26 02:18:03;;;;;;;14.65;3.40;;;;;;;7.98;80.69;100233.84;5024213;28;20055;-68
2023/03/26 02:20:29;;;;;;;22.65;3.78;;;;;;;7.93;81.51;100231.28;5013359;28;20034;-68
2023/03/26 02:22:56;;;;;;;13.98;3.17;;;;;;;7.93;81.48;100228.69;5027125;28;20900;-68
2023/03/26 02:25:22;;;;;;;12.82;2.40;;;;;;;7.95;81.52;100219.25;5015514;28;20038;-68
2023/03/26 02:27:49;;;;;;;14.50;3.08;;;;;;;8.02;81.66;100213.19;5021573;28;20029;-68
2023/03/26 02:30:18;;;;;;;16.70;3.38;;;;;;;8.12;81.24;100202.84;5020421;28;20821;-68
2023/03/26 02:32:43;;;;;;;16.83;3.75;;;;;;;8.16;80.72;100196.81;5025712;28;20037;-68
2023/03/26 02:35:11;;;;;;;10.05;2.20;;;;;;;8.21;80.76;100193.34;5027323;28;20030;-68
2023/03/26 02:37:37;;;;;;;14.18;2.92;;;;;;;8.24;81.04;100190.72;5021776;28;20726;-68
2023/03/26 02:40:05;;;;;;;16.58;2.78;;;;;;;8.27;80.84;100193.28;5018032;28;20063;-68
2023/03/26 02:42:30;;;;;;;15.75;3.38;;;;;;;8.28;81.54;100184.66;5029003;28;20024;-67
2023/03/26 02:44:55;;;;;;;14.68;3.13;;;;;;;8.29;81.62;100188.09;5016858;28;20045;-68
2023/03/26 02:47:21;;;;;;;12.25;2.70;;;;;;;8.29;81.70;100185.53;5023514;28;20108;-68
2023/03/26 02:49:46;;;;;;;11.00;2.50;;;;;;;8.31;81.50;100184.66;5030214;28;20041;-68
2023/03/26 02:52:13;;;;;;;14.02;3.22;;;;;;;8.39;81.84;100182.88;5023656;28;20061;-68
2023/03/26 02:54:39;;;;;;;15.70;3.13;;;;;;;8.47;80.98;100175.94;5022259;28;20110;-68
2023/03/26 02:57:05;;;;;;;12.50;2.58;;;;;;;8.61;79.89;100173.22;5020708;28;20503;-68
2023/03/26 02:59:30;;;;;;;15.27;2.38;;;;;;;8.64;80.35;100170.59;5033831;28;20455;-68
2023/03/26 03:01:55;;;;;;;12.30;2.85;;;;;;;8.69;79.78;100165.41;5026232;28;20037;-68
2023/03/26 03:04:21;;;;;;;15.35;2.80;;;;;;;8.69;79.81;100161.13;5020967;28;20545;-68
2023/03/26 03:06:51;;;;;;;17.35;2.85;;;;;;;8.73;80.15;100162.78;5017071;28;20063;-68
2023/03/26 03:09:17;;;;;;;14.82;2.83;;;;;;;8.78;80.40;100155.03;5014873;28;20973;-68
2023/03/26 03:11:43;;;;;;;12.80;2.85;;;;;;;8.75;80.10;100153.34;5017417;28;20041;-68
2023/03/26 03:14:08;;;;;;;12.05;2.80;;;;;;;8.77;80.13;100148.16;5014678;28;20048;-68
2023/03/26 03:16:33;;;;;;;15.32;3.88;;;;;;;8.80;79.67;100143.81;5022174;28;20541;-67
2023/03/26 03:19:00;;;;;;;15.05;2.75;;;;;;;8.83;78.97;100132.63;5010789;28;20029;-68
2023/03/26 03:21:27;;;;;;;11.88;3.33;;;;;;;8.83;79.48;100130.91;5013454;28;20030;-68
2023/03/26 03:23:54;;;;;;;14.63;2.65;;;;;;;8.83;79.74;100128.31;5018086;28;20133;-67
2023/03/26 03:26:21;;;;;;;10.48;2.35;;;;;;;8.83;80.32;100117.16;5016059;28;20032;-68
2023/03/26 03:28:48;;;;;;;13.30;3.65;;;;;;;8.85;79.60;100121.41;5018533;28;20038;-68
2023/03/26 03:31:15;;;;;;;15.18;3.33;;;;;;;8.90;79.06;100113.66;5025620;28;20061;-67
2023/03/26 03:33:41;;;;;;;15.75;2.38;;;;;;;8.92;79.41;100110.19;5016358;28;20445;-68
2023/03/26 03:36:12;;;;;;;13.07;2.72;;;;;;;8.95;79.17;100107.56;5020337;28;20029;-68
2023/03/26 03:38:40;;;;;;;10.23;2.63;;;;;;;9.00;78.92;100103.19;5015944;28;20034;-68
2023/03/26 03:41:07;;;;;;;12.77;2.90;;;;;;;9.03;78.92;100102.31;5019081;28;20038;-67
2023/03/26 03:43:32;;;;;;;12.38;3.20;;;;;;;9.05;78.60;100103.16;5011334;28;20045;-67
2023/03/26 03:45:58;;;;;;;15.40;2.47;;;;;;;9.04;78.86;100102.28;5005506;28;20474;-67
2023/03/26 03:48:24;;;;;;;11.77;2.83;;;;;;;8.99;79.44;100101.47;5017673;28;20479;-67
2023/03/26 03:50:50;;;;;;;15.40;3.70;;;;;;;8.98;79.86;100101.50;5020676;28;20041;-67
2023/03/26 03:53:17;;;;;;;7.82;2.60;;;;;;;8.93;80.14;100096.41;5018265;28;20503;-67
2023/03/26 03:55:51;;;;;;;8.52;2.30;;;;;;;8.91;81.34;100087.00;5018596;28;20045;-68
2023/03/26 03:58:27;;;;;;;6.85;2.53;;;;;;;8.89;82.87;100081.88;5021312;28;20030;-68
2023/03/26 04:00:59;;;;;;;11.32;2.92;;;;;;;8.83;82.42;100075.94;5008472;28;20057;-68
2023/03/26 04:03:26;;;;;;;13.07;2.45;;;;;;;8.78;83.68;100070.84;5015585;28;20941;-67
2023/03/26 04:05:53;;;;;;;13.27;3.40;;;;;;;8.76;83.63;100071.72;5015582;28;20096;-68
2023/03/26 04:08:19;;;;;;;10.75;3.58;;;;;;;8.73;84.79;100064.00;5014924;28;20968;-67
2023/03/26 04:10:45;;;;;;;8.52;2.67;;;;;;;8.71;84.58;100060.63;5019215;28;20041;-68
2023/03/26 04:13:12;;;;;;;11.93;3.58;;;;;;;8.68;85.79;100058.94;5015145;28;20038;-68
2023/03/26 04:15:38;;;;;;;9.52;2.40;;;;;;;8.66;85.98;100058.13;5010230;28;20080;-67
2023/03/26 04:18:09;;;;;;;9.05;2.28;;;;;;;8.63;85.92;100050.41;5013419;28;20064;-67
2023/03/26 04:20:39;;;;;;;10.63;2.25;;;;;;;8.63;86.05;100047.00;5010159;28;20053;-68
2023/03/26 04:23:06;;;;;;;12.45;3.05;;;;;;;8.63;86.09;100045.28;5017152;28;20037;-68
2023/03/26 04:25:35;;;;;;;12.73;2.60;;;;;;;8.60;86.41;100040.16;5012462;28;20073;-68
2023/03/26 04:28:05;;;;;;;10.45;2.63;;;;;;;8.60;86.84;100045.31;5019786;28;20751;-68
2023/03/26 04:30:32;;;;;;;13.30;2.53;;;;;;;8.61;86.59;100039.25;5016333;28;20022;-67
2023/03/26 04:33:02;;;;;;;12.32;3.03;;;;;;;8.62;86.30;100025.53;5020260;28;20076;-68
2023/03/26 04:35:33;;;;;;;9.93;2.88;;;;;;;8.66;86.35;100029.78;5016743;28;21845;-68
2023/03/26 04:37:59;;;;;;;9.52;2.45;;;;;;;8.64;86.32;100013.47;5024749;28;20045;-69
2023/03/26 04:40:25;;;;;;;13.80;3.13;;;;;;;8.65;86.39;100022.03;5017265;28;20874;-71
2023/03/26 04:42:53;;;;;;;16.38;3.08;;;;;;;8.65;86.85;100009.16;5021132;28;20036;-68
2023/03/26 04:45:21;;;;;;;14.00;3.10;;;;;;;8.63;87.50;100009.19;5016537;28;20487;-68
2023/03/26 04:47:47;;;;;;;10.23;3.25;;;;;;;8.63;87.80;100008.34;5014516;28;20041;-68
2023/03/26 04:50:13;;;;;;;13.73;2.88;;;;;;;8.61;87.54;100003.19;5011870;28;20030;-67
2023/03/26 04:52:38;;;;;;;14.07;2.97;;;;;;;8.59;88.05;100007.53;5013111;28;20041;-67
2023/03/26 04:55:20;;;;;;;17.17;3.08;;;;;;;8.60;88.29;99998.94;5011252;28;20663;-68
2023/03/26 04:57:51;;;;;;;16.58;2.65;;;;;;;8.60;88.51;99985.19;5013542;28;20033;-68
2023/03/26 05:00:19;;;;;;;13.77;2.60;;;;;;;8.57;88.29;99989.50;5016328;28;20041;-68
2023/03/26 05:02:44;;;;;;;13.38;3.50;;;;;;;8.55;89.35;99975.78;5007813;28;20041;-68
2023/03/26 05:05:10;;;;;;;15.00;3.05;;;;;;;8.55;89.65;99970.66;5011427;28;20407;-68
2023/03/26 05:07:36;;;;;;;8.43;2.70;;;;;;;8.53;89.30;99966.38;5005378;28;20041;-68
2023/03/26 05:10:03;;;;;;;17.33;3.20;;;;;;;8.54;89.73;99957.81;5007441;28;20749;-68
2023/03/26 05:12:29;;;;;;;14.30;3.33;;;;;;;8.55;90.00;99954.34;5003747;28;20143;-68
2023/03/26 05:14:55;;;;;;;13.77;2.65;;;;;;;8.55;90.69;99959.50;5006814;28;20034;-68
2023/03/26 05:17:23;;;;;;;10.73;2.97;;;;;;;8.55;89.80;99955.19;5001940;28;20033;-67
2023/03/26 05:19:50;;;;;;;22.73;3.75;;;;;;;8.57;90.29;99950.84;5003147;28;20029;-68
2023/03/26 05:22:16;;;;;;;14.55;3.05;;;;;;;8.58;90.10;99950.00;5004774;28;20038;-68
2023/03/26 05:24:42;;;;;;;13.77;3.05;;;;;;;8.60;90.43;99951.72;5003080;28;20130;-68
2023/03/26 05:27:08;;;;;;;12.80;2.70;;;;;;;8.59;91.06;99950.84;5008039;28;20025;-67
2023/03/26 05:29:33;;;;;;;11.73;2.83;;;;;;;8.56;91.44;99950.91;5003825;28;20390;-67
2023/03/26 05:31:58;;;;;;;13.35;3.22;;;;;;;8.56;92.22;99950.91;5005058;28;20044;-67
2023/03/26 05:34:26;;;;;;;15.75;3.15;;;;;;;8.55;92.90;99941.47;5009675;28;20045;-67
2023/03/26 05:36:51;;;;;;;17.98;3.97;;;;;;;8.53;93.14;99935.47;5002801;28;20072;-67
2023/03/26 05:39:17;;;;;;;21.15;4.03;;;;;;;8.50;93.35;99933.81;5000250;28;20395;-65
2023/03/26 05:41:42;;;;;;;11.02;3.28;;;;;;;8.46;93.77;99929.56;5004865;28;20041;-67
2023/03/26 05:44:08;;;;;;;18.70;3.40;;;;;;;8.41;94.51;99923.63;5000408;28;20038;-68
2023/03/26 05:46:33;;;;;;;13.52;3.20;;;;;;;8.39;95.53;99915.06;5002344;28;20045;-67
2023/03/26 05:48:59;;;;;;;15.00;3.53;;;;;;;8.38;95.84;99907.34;5001667;28;20029;-67
2023/03/26 05:51:24;;;;;;;18.42;3.00;;;;;;;8.37;96.28;99918.53;5005300;28;20641;-67
2023/03/26 05:53:50;;;;;;;15.20;2.65;;;;;;;8.36;96.57;99912.53;5015449;28;20450;-67
2023/03/26 05:56:15;;;;;;;19.83;3.20;;;;;;;8.36;96.29;99911.69;5004660;28;20033;-67
2023/03/26 05:58:42;;;;;;;23.27;3.88;;;;;;;8.38;97.19;99912.50;5003419;28;20083;-67
2023/03/26 06:01:15;;;;;;;15.43;3.40;;;;;;;8.38;97.17;99905.63;5003658;28;20827;-66
2023/03/26 06:03:41;;;;;;;18.25;3.60;;;;;;;8.39;97.38;99888.47;5007315;28;20156;-67
2023/03/26 06:06:09;;;;;;;12.40;2.50;;;;;;;8.38;97.61;99892.75;5005964;28;20029;-67
2023/03/26 06:08:35;;;;;;;18.77;4.43;;;;;;;8.38;97.56;99894.47;5000769;28;20091;-65
2023/03/26 06:11:03;;;;;;;12.25;3.05;;;;;;;8.37;97.22;99880.75;5001831;28;20626;-65
2023/03/26 06:13:28;;;;;;;11.80;2.85;;;;;;;8.35;96.92;99874.78;5007249;28;20045;-63
2023/03/26 06:15:54;;;;;;;15.60;3.53;;;;;;;8.33;97.54;99873.09;5003146;28;20037;-62
2023/03/26 06:18:20;;;;;;;18.92;3.22;;;;;;;8.32;97.67;99863.66;5003077;28;20025;-63
2023/03/26 06:20:45;;;;;;;19.25;3.53;;;;;;;8.32;97.66;99858.50;5004075;28;20042;-63
2023/03/26 06:23:11;;;;;;;17.27;3.25;;;;;;;8.31;97.83;99859.38;5001632;28;20462;-64
2023/03/26 06:25:37;;;;;;;20.95;3.80;;;;;;;8.31;97.62;99846.50;5004900;28;20034;-63
2023/03/26 06:28:02;;;;;;;19.75;3.83;;;;;;;8.29;97.64;99851.69;5005094;28;20083;-63
2023/03/26 06:30:28;;;;;;;11.93;2.92;;;;;;;8.32;97.88;99861.09;5003618;28;20033;-62
2023/03/26 06:32:53;;;;;;;12.63;3.38;;;;;;;8.34;98.07;99849.03;5003009;28;20099;-63
2023/03/26 06:35:19;;;;;;;15.57;3.22;;;;;;;8.36;98.18;99852.47;5005592;28;20077;-63
2023/03/26 06:37:45;;;;;;;14.48;3.05;;;;;;;8.41;98.92;99855.81;5004761;28;20041;-63
2023/03/26 06:40:11;;;;;;;19.70;3.10;;;;;;;8.43;98.79;99848.91;5002473;28;20048;-63
2023/03/26 06:42:36;;;;;;;12.80;3.10;;;;;;;8.44;98.75;99851.47;5004024;28;20808;-62
2023/03/26 06:45:01;;;;;;;17.33;3.90;;;;;;;8.43;98.78;99854.91;5002132;28;20045;-62
2023/03/26 06:47:27;;;;;;;21.25;3.92;;;;;;;8.41;98.75;99851.53;5002987;28;20029;-61
2023/03/26 06:49:52;;;;;;;13.50;3.45;;;;;;;8.42;98.48;99850.66;4998257;28;20120;-62
2023/03/26 06:52:17;;;;;;;19.88;3.50;;;;;;;8.43;98.85;99857.50;5004637;28;20125;-61
2023/03/26 06:54:43;;;;;;;16.30;4.03;;;;;;;8.41;98.63;99854.09;5010375;28;20470;-62
2023/03/26 06:57:08;;;;;;;17.95;3.95;;;;;;;8.41;99.53;99848.09;5011502;28;20553;-61
2023/03/26 06:59:34;;;;;;;14.57;3.63;;;;;;;8.39;99.32;99836.97;5010626;28;20049;-61
2023/03/26 07:01:59;;;;;;;13.25;3.53;;;;;;;8.42;99.56;99836.94;5013829;28;20514;-61
2023/03/26 07:04:24;;;;;;;13.50;3.80;;;;;;;8.44;100.00;99833.44;5018538;28;21192;-62
2023/03/26 07:06:50;;;;;;;12.45;3.13;;;;;;;8.46;99.24;99836.00;5022908;28;20498;-62
2023/03/26 07:09:15;;;;;;;15.73;3.47;;;;;;;8.46;99.65;99823.13;5016973;28;20044;-62
2023/03/26 07:11:41;;;;;;;13.05;3.60;;;;;;;8.47;99.24;99817.97;5000295;28;20046;-62
2023/03/26 07:14:06;;;;;;;16.17;3.85;;;;;;;8.47;99.17;99822.25;5016964;28;20041;-62
2023/03/26 07:16:31;;;;;;;13.68;3.58;;;;;;;8.48;99.58;99814.53;5014503;28;20049;-61
2023/03/26 07:18:57;;;;;;;15.52;3.97;;;;;;;8.50;99.93;99815.34;5014445;28;20112;-62
2023/03/26 07:21:22;;;;;;;18.55;3.42;;;;;;;8.53;100.00;99811.84;5019062;28;20048;-61
2023/03/26 07:23:48;;;;;;;17.73;4.47;;;;;;;8.51;99.30;99804.16;5018490;28;20037;-62
2023/03/26 07:26:22;;;;;;;16.60;4.00;;;;;;;8.52;99.95;99810.16;5013535;28;20439;-61
2023/03/26 07:29:00;;;;;;;19.77;4.07;;;;;;;8.54;100.00;99803.28;5015937;28;20048;-63
2023/03/26 07:31:54;;;;;;;14.60;4.55;;;;;;;8.52;100.00;99792.97;5016180;28;20380;-61
2023/03/26 07:34:50;;;;;;;11.20;4.10;;;;;;;8.51;100.00;99791.28;5013635;28;20131;-61
2023/03/26 07:37:36;;;;;;;16.05;3.75;;;;;;;8.50;100.00;99786.16;5003279;28;20152;-62
2023/03/26 07:40:23;;;;;;;19.05;3.80;;;;;;;8.51;100.00;99782.72;5014670;28;20392;-62
2023/03/26 07:43:13;;;;;;;9.15;3.28;;;;;;;8.48;100.00;99781.03;5015994;28;20038;-62
2023/03/26 07:45:41;;;;;;;22.95;4.10;;;;;;;8.46;100.00;99777.63;5007192;28;20148;-61
2023/03/26 07:48:15;;;;;;;15.63;4.18;;;;;;;8.47;100.00;99768.16;5012955;28;20522;-61
2023/03/26 07:50:41;;;;;;;12.70;3.40;;;;;;;8.46;100.00;99771.63;5004571;28;20050;-61
2023/03/26 07:53:07;;;;;;;17.98;4.25;;;;;;;8.45;100.00;99767.34;5015145;28;20585;-61
2023/03/26 07:55:33;;;;;;;13.80;4.63;;;;;;;8.49;100.00;99763.84;5013220;28;20056;-60
2023/03/26 07:57:58;;;;;;;17.67;3.53;;;;;;;8.46;100.00;99763.88;5013253;28;20099;-61
2023/03/26 08:00:39;;;;;;;14.45;4.07;;;;;;;8.47;100.00;99758.72;5023209;28;20041;-60
2023/03/26 08:03:04;;;;;;;17.48;3.72;;;;;;;8.48;100.00;99749.28;5016343;28;20038;-61
2023/03/26 08:05:34;;;;;;;20.35;3.70;;;;;;;8.47;100.00;99755.28;5009474;28;20126;-62
2023/03/26 08:08:15;;;;;;;14.05;3.67;;;;;;;8.48;100.00;99752.72;5009901;28;20077;-60
2023/03/26 08:10:52;;;;;;;19.17;4.22;;;;;;;8.48;100.00;99755.28;5012645;28;20045;-61
2023/03/26 08:13:53;;;;;;;16.65;4.22;;;;;;;8.46;100.00;99748.44;5015771;28;20526;-61
2023/03/26 08:16:27;;;;;;;14.82;4.88;;;;;;;8.45;100.00;99745.03;5013579;28;20694;-60
2023/03/26 08:19:43;;;;;;;21.77;7.25;;;;;;;8.45;100.00;99750.19;5015376;28;20041;-61
2023/03/26 08:22:25;;;;;;;13.15;3.17;;;;;;;8.44;100.00;99743.31;5011577;28;20072;-61
2023/03/26 08:25:16;;;;;;;14.60;4.35;;;;;;;8.45;100.00;99742.47;5013324;28;20048;-61
2023/03/26 08:27:46;;;;;;;21.33;4.70;;;;;;;8.50;100.00;99744.94;5014598;28;20522;-61
2023/03/26 08:30:19;;;;;;;16.20;3.47;;;;;;;8.49;100.00;99740.66;5018649;28;20083;-61
2023/03/26 08:32:53;;;;;;;18.98;4.15;;;;;;;8.46;100.00;99736.41;5016698;28;20087;-61
2023/03/26 08:35:18;;;;;;;13.77;3.45;;;;;;;8.45;100.00;99734.72;5016319;28;20559;-61
2023/03/26 08:37:44;;;;;;;12.30;3.30;;;;;;;8.45;100.00;99739.03;5019576;28;20049;-61
2023/03/26 08:40:10;;;;;;;21.23;3.45;;;;;;;8.42;100.00;99742.50;5018748;28;20057;-60
2023/03/26 08:43:09;;;;;;;17.02;3.55;;;;;;;8.43;100.00;99738.19;5015078;28;20795;-61
2023/03/26 08:45:53;;;;;;;11.05;3.17;;;;;;;8.45;100.00;99744.19;5002017;28;20474;-61
2023/03/26 08:48:34;;;;;;;13.15;3.17;;;;;;;8.45;100.00;99736.47;5025611;28;20466;-61
2023/03/26 08:51:18;;;;;;;17.77;4.07;;;;;;;8.45;100.00;99732.16;5022060;28;20107;-61
2023/03/26 08:53:58;;;;;;;14.63;3.25;;;;;;;8.44;100.00;99721.88;5017875;28;20506;-61
2023/03/26 08:56:51;;;;;;;16.45;3.95;;;;;;;8.41;100.00;99722.78;5026750;28;20811;-60
2023/03/26 08:59:23;;;;;;;17.50;3.88;;;;;;;8.45;100.00;99713.28;5013280;28;20399;-63
2023/03/26 09:02:07;;;;;;;21.73;6.22;;;;;;;8.47;100.00;99711.50;5006544;28;20041;-59
2023/03/26 09:05:00;;;;;;;14.00;3.83;;;;;;;8.46;100.00;99704.66;5017440;28;20494;-59
2023/03/26 09:08:10;;;;;;;12.00;4.22;;;;;;;8.44;100.00;99701.28;5026318;28;20337;-59
2023/03/26 09:10:44;;;;;;;12.85;5.18;;;;;;;8.37;99.22;99691.94;5014332;28;20041;-59
2023/03/26 09:13:28;;;;;;;10.30;2.95;;;;;;;8.34;99.06;99689.41;5026359;28;20100;-59
2023/03/26 09:16:09;;;;;;;7.85;2.72;;;;;;;8.32;99.92;99692.03;5022334;28;20033;-59
2023/03/26 09:19:13;;;;;;;14.63;2.83;;;;;;;8.25;99.40;99685.25;5032867;28;20025;-60
2023/03/26 09:22:20;;;;;;;11.45;3.33;;;;;;;8.19;98.66;99682.78;5021918;28;20080;-60
2023/03/26 09:25:24;;;;;;;8.63;2.47;;;;;;;8.15;99.15;99675.16;4997861;28;20046;-60
2023/03/26 09:28:28;;;;;;;7.10;2.03;;;;;;;8.12;97.85;99667.47;4990906;28;20042;-58
2023/03/26 09:31:21;;;;;;;3.97;1.90;;;;;;;8.09;97.31;99668.38;5018168;28;20052;-62
2023/03/26 09:34:01;;;;;;;11.25;2.35;;;;;;;8.09;97.75;99657.25;5019979;28;20044;-62
2023/03/26 09:37:11;;;;;;;8.30;4.32;;;;;;;8.15;97.37;99657.13;5024787;28;20076;-60
2023/03/26 09:39:46;;;;;;;27.20;14.73;;;;;;;8.16;97.78;99648.56;5008164;28;20037;-59
2023/03/26 09:42:43;;;;;;;15.70;5.80;;;;;;;8.25;97.48;99645.84;5012859;28;20044;-59
2023/03/26 09:45:33;;;;;;;17.10;5.10;;;;;;;8.40;97.13;99641.25;5010898;28;20045;-59
2023/03/26 09:48:37;;;;;;;19.95;10.00;;;;;;;8.70;97.50;99626.97;5013451;28;20048;-60
2023/03/26 09:51:28;;;;;;;7.28;2.90;;;;;;;8.99;96.22;99629.00;5001938;28;20038;-60
2023/03/26 09:54:31;;;;;;;11.07;2.78;;;;;;;9.26;94.14;99617.25;5008300;28;20142;-59
2023/03/26 09:57:20;;;;;;;6.22;3.00;;;;;;;9.61;91.90;99612.19;5015893;28;20037;-60
2023/03/26 10:00:03;;;;;;;7.00;2.42;;;;;;;10.14;91.89;99609.19;5013639;28;20041;-59
2023/03/26 10:02:43;;;;;;;5.32;2.58;;;;;;;10.21;89.42;99608.13;5014966;28;20041;-60
2023/03/26 10:05:23;;;;;;;3.50;1.60;;;;;;;10.43;88.35;99605.00;5014135;28;20741;-60
2023/03/26 10:07:58;;;;;;;5.70;2.10;;;;;;;10.76;89.94;99599.78;5011785;28;20048;-60
2023/03/26 10:10:37;;;;;;;8.73;2.20;;;;;;;10.95;89.93;99596.69;5014672;28;20037;-60
2023/03/26 10:13:23;;;;;;;6.60;1.77;;;;;;;10.90;86.92;99589.03;5006055;28;20515;-59
2023/03/26 10:16:09;;;;;;;6.85;2.45;;;;;;;11.01;87.27;99581.00;5005780;28;20089;-60
2023/03/26 10:18:55;;;;;;;4.72;1.85;;;;;;;10.90;85.03;99589.03;5026541;28;20457;-60
2023/03/26 10:21:32;;;;;;;7.75;2.30;;;;;;;10.75;87.67;99585.16;5005024;28;20041;-60
2023/03/26 10:24:19;;;;;;;4.60;2.63;;;;;;;10.73;88.77;99586.94;5011488;28;20104;-59
2023/03/26 10:26:44;;;;;;;4.38;2.10;;;;;;;10.64;88.19;99592.34;5006244;28;20037;-60
2023/03/26 10:29:10;;;;;;;9.15;2.15;;;;;;;10.59;89.16;99589.06;5009931;28;20038;-60
2023/03/26 10:31:54;;;;;;;6.22;2.22;;;;;;;10.39;87.09;99582.69;5008213;28;20041;-60
2023/03/26 10:34:39;;;;;;;6.90;2.60;;;;;;;10.39;89.43;99585.28;5014010;28;20041;-60
2023/03/26 10:37:15;;;;;;;6.95;2.00;;;;;;;10.33;92.19;99585.47;5006770;28;20046;-62
2023/03/26 10:40:00;;;;;;;6.93;1.88;;;;;;;10.26;90.50;99576.19;5016658;28;20025;-62
2023/03/26 10:42:26;;;;;;;;;;;;;;;10.22;90.48;99576.25;5012564;28;20014;-61
2023/03/26 10:45:13;;;;;;;3.60;1.50;;;;;;;10.05;90.61;99568.09;5010095;28;19984;-62
2023/03/26 10:48:29;;;;;;;3.70;1.50;;;;;;;9.98;90.58;99569.13;5006871;28;20101;-62
2023/03/26 10:51:30;;;;;;;3.60;1.08;;;;;;;9.95;91.52;99563.19;5002769;28;20045;-62
2023/03/26 10:54:04;;;;;;;5.68;1.60;;;;;;;10.05;91.83;99564.66;5007703;28;20038;-63
2023/03/26 10:57:01;;;;;;;3.83;1.17;;;;;;;10.14;91.06;99554.97;5011390;28;20125;-63
2023/03/26 10:59:27;;;;;;;3.63;1.33;;;;;;;10.15;90.25;99558.38;5000320;28;20049;-63
2023/03/26 11:01:59;;;;;;;4.18;1.40;;;;;;;10.31;90.67;99554.50;5012950;28;20042;-62
2023/03/26 11:04:35;;;;;;;4.38;1.88;;;;;;;10.39;92.07;99551.69;5011103;28;20040;-62
2023/03/26 11:07:31;;;;;;;4.53;1.52;;;;;;;10.43;90.87;99541.25;5005469;28;20041;-62
2023/03/26 11:10:03;;;;;;;3.50;1.80;;;;;;;10.53;92.22;99536.69;5013511;28;20812;-62
2023/03/26 11:12:48;;;;;;;3.35;1.80;;;;;;;10.65;90.80;99541.53;5009033;28;20041;-62
2023/03/26 11:15:55;;;;;;;3.80;1.50;;;;;;;10.67;89.94;99530.25;5009275;28;20470;-62
2023/03/26 11:18:52;;;;;;;3.90;1.40;;;;;;;10.68;89.28;99526.75;5009332;28;20107;-62
2023/03/26 11:21:45;;;;;;;5.50;1.70;;;;;;;10.90;89.49;99526.13;5012859;28;20509;-62
2023/03/26 11:24:29;;;;;;;2.38;1.50;;;;;;;10.86;89.01;99524.56;5009846;28;20049;-62
2023/03/26 11:27:16;;;;;;;5.72;1.52;;;;;;;10.79;90.55;99521.28;5013833;28;20048;-62
2023/03/26 11:29:55;;;;;;;3.95;1.70;;;;;;;10.77;90.54;99521.31;5014194;28;20030;-62
2023/03/26 11:32:30;;;;;;;3.60;1.90;;;;;;;10.66;90.87;99519.94;5010356;28;20042;-62
2023/03/26 11:35:14;;;;;;;6.43;1.73;;;;;;;10.54;91.56;99521.13;5009244;28;20034;-62
2023/03/26 11:37:49;;;;;;;2.67;1.55;;;;;;;10.51;91.66;99516.06;5014796;28;20510;-62
2023/03/26 11:40:28;;;;;;;7.10;2.30;;;;;;;10.54;92.58;99523.72;5007034;28;20065;-62
2023/03/26 11:43:03;;;;;;;4.22;1.65;;;;;;;10.47;93.30;99529.13;5008071;28;20037;-63
2023/03/26 11:45:31;;;;;;;;;;;;;;;10.39;92.10;99528.44;5007766;28;20037;-62
2023/03/26 11:48:13;;;;;;;4.22;1.52;;;;;;;10.79;93.57;99522.16;5018951;28;19970;-62
2023/03/26 11:50:45;;;;;;;3.63;1.10;;;;;;;10.77;87.23;99513.56;5011972;28;20120;-62
2023/03/26 11:53:17;;;;;;;1.25;0.70;;;;;;;10.86;86.82;99515.03;5015255;28;20133;-62
2023/03/26 11:55:55;;;;;;;1.73;0.88;;;;;;;11.03;86.02;99532.66;5008458;28;20040;-62